Prados, Brazil
Current Conditions -  °F | °C
As of 6:00 AM on Monday 26 Jan 2015 (Local Time) from SBBQ Reporting Station
Clear Clear  
Wind Chill: 59°   Ceiling: Unl
Heat Index: 59°   Visibility: 6mi
Dew Point: 59°   Wind: 1mph
Humidity: 100%   Direction: 360°N
Pressure: 30.12"   Gusts: NA
Location:  21.06°S, 44.08°W
Report Text: SBBQ 260800Z 36001KT CAVOK 15/15 Q1020
Loading
Personal Weather Stations






























Interactive Weather Map New forecast layout! Learn more

10-Day Weather Forecast

Advertisements
Track Severe Weather on mobile